Solebury, Pennsylvania
Current Conditions -  °F | °C
As of 2:22 PM on Thursday 27 Nov 2014 (Local Time) from KDYL Reporting Station
Overcast Overcast  
Wind Chill: 29°   Ceiling: 6000
Heat Index: 35°   Visibility: 10mi
Dew Point: 28°   Wind: 7mph
Humidity: 76%   Direction: 310°NW
Pressure: 30"   Gusts: NA
Location:  40.38°N, 75.01°W
Report Text: KDYL 271922Z AUTO 31006KT 10SM SCT024 OVC060 02/M02 A3000 RMK AO2 T00171022 $
Loading
Personal Weather Stations






























Interactive Weather Map New forecast layout! Learn more

10-Day Weather Forecast

Advertisements
Track Severe Weather on mobile